createdAt,value
2022-12-11T00:01:14.931Z,81.81
2022-12-11T00:03:44.430Z,81.84
2022-12-11T00:06:14.816Z,81.73
2022-12-11T00:08:45.192Z,82.15
2022-12-11T00:11:14.820Z,82.31
2022-12-11T00:13:43.855Z,81.70
2022-12-11T00:16:12.894Z,81.46
2022-12-11T00:18:41.597Z,81.24
2022-12-11T00:21:13.337Z,81.15
2022-12-11T00:23:42.339Z,82.44
2022-12-11T00:26:15.620Z,83.10
2022-12-11T00:28:44.777Z,82.53
2022-12-11T00:31:15.194Z,82.14
2022-12-11T00:33:44.388Z,82.82
2022-12-11T00:36:14.122Z,83.79
2022-12-11T00:38:43.509Z,84.72
2022-12-11T00:41:13.932Z,84.11
2022-12-11T00:43:42.650Z,83.84
2022-12-11T00:46:11.656Z,85.05
2022-12-11T00:48:40.372Z,84.59
2022-12-11T00:51:09.087Z,85.20
2022-12-11T00:53:38.236Z,84.49
2022-12-11T00:56:14.028Z,84.85
2022-12-11T00:58:42.789Z,84.26
2022-12-11T01:01:12.876Z,85.04
2022-12-11T01:03:41.805Z,84.04
2022-12-11T01:06:14.648Z,84.18
2022-12-11T01:08:43.343Z,85.13
2022-12-11T01:11:13.566Z,83.81
2022-12-11T01:13:42.803Z,83.97
2022-12-11T01:16:13.937Z,83.20
2022-12-11T01:18:43.052Z,83.99
2022-12-11T01:21:13.392Z,83.13
2022-12-11T01:23:41.997Z,83.67
2022-12-11T01:26:13.694Z,83.02
2022-12-11T01:28:43.011Z,84.52
2022-12-11T01:31:12.894Z,84.00
2022-12-11T01:33:42.170Z,83.95
2022-12-11T01:36:12.216Z,83.68
2022-12-11T01:38:41.032Z,83.43
2022-12-11T01:41:10.556Z,84.09
2022-12-11T01:43:58.766Z,84.44
2022-12-11T01:46:28.174Z,83.83
2022-12-11T01:48:57.017Z,82.92
2022-12-11T01:51:26.094Z,82.69
2022-12-11T01:53:56.776Z,83.50
2022-12-11T01:56:25.888Z,83.07
2022-12-11T01:59:00.101Z,83.22
2022-12-11T02:01:33.983Z,83.06
2022-12-11T02:04:03.105Z,82.32
2022-12-11T02:06:37.266Z,82.28
2022-12-11T02:09:07.545Z,82.72
2022-12-11T02:11:41.591Z,82.61
2022-12-11T02:14:16.013Z,83.58
2022-12-11T02:16:47.782Z,82.20
2022-12-11T02:19:34.695Z,81.59
2022-12-11T02:22:07.226Z,83.25
2022-12-11T02:24:48.359Z,83.43
2022-12-11T02:27:24.712Z,83.12
2022-12-11T02:29:56.803Z,82.59
2022-12-11T02:32:27.679Z,81.54
2022-12-11T02:35:00.251Z,82.40
2022-12-11T02:37:30.854Z,80.80
2022-12-11T02:39:59.460Z,81.48
2022-12-11T02:42:31.078Z,81.93
2022-12-11T02:45:02.716Z,80.94
2022-12-11T02:47:32.389Z,80.78
2022-12-11T02:50:04.919Z,81.15
2022-12-11T02:52:33.968Z,79.76
2022-12-11T02:55:03.841Z,80.25
2022-12-11T02:57:35.988Z,80.44
2022-12-11T03:00:07.891Z,80.17
2022-12-11T03:02:37.463Z,80.22
2022-12-11T03:05:06.829Z,80.29
2022-12-11T03:07:38.180Z,80.42
2022-12-11T03:10:08.741Z,81.19
2022-12-11T03:12:39.732Z,80.89
2022-12-11T03:15:13.653Z,80.84
2022-12-11T03:17:48.592Z,82.33
2022-12-11T03:20:22.727Z,80.29
2022-12-11T03:22:56.281Z,80.86
2022-12-11T03:25:28.549Z,81.41
2022-12-11T03:27:59.230Z,79.98
2022-12-11T03:30:30.345Z,79.00
2022-12-11T03:33:05.625Z,79.82
2022-12-11T03:35:36.846Z,80.44
2022-12-11T03:38:09.837Z,80.99
2022-12-11T03:40:39.992Z,81.59
2022-12-11T03:43:08.836Z,80.79
2022-12-11T03:45:40.357Z,79.38
2022-12-11T03:48:10.085Z,80.63
2022-12-11T03:50:41.608Z,80.16
2022-12-11T03:53:11.015Z,79.83
2022-12-11T03:55:40.779Z,79.86
2022-12-11T03:58:09.463Z,81.16
2022-12-11T04:00:39.632Z,80.04
2022-12-11T04:03:14.894Z,80.59
2022-12-11T04:05:45.491Z,80.29
2022-12-11T04:08:14.405Z,79.58
2022-12-11T04:10:43.280Z,80.46
2022-12-11T04:13:12.025Z,79.89
2022-12-11T04:15:41.134Z,79.13
2022-12-11T04:18:28.106Z,80.22
2022-12-11T04:21:11.505Z,80.61
2022-12-11T04:23:57.828Z,80.24
2022-12-11T04:26:26.669Z,79.91
2022-12-11T04:28:55.529Z,80.62
2022-12-11T04:31:25.501Z,79.73
2022-12-11T04:33:54.118Z,80.81
2022-12-11T04:36:22.869Z,80.80
2022-12-11T04:38:51.453Z,80.34
2022-12-11T04:41:20.084Z,79.84
2022-12-11T04:43:48.681Z,79.65
2022-12-11T04:46:18.837Z,80.37
2022-12-11T04:48:55.379Z,80.49
2022-12-11T04:51:26.236Z,80.99
2022-12-11T04:53:55.089Z,80.88
2022-12-11T04:56:23.939Z,81.38
2022-12-11T04:58:52.551Z,79.62
2022-12-11T05:01:23.086Z,80.33
2022-12-11T05:03:53.160Z,78.65
2022-12-11T05:06:21.826Z,79.07
2022-12-11T05:08:50.392Z,79.59
2022-12-11T05:11:19.027Z,78.99
2022-12-11T05:13:47.895Z,79.68
2022-12-11T05:16:17.636Z,78.24
2022-12-11T05:18:47.321Z,78.98
2022-12-11T05:21:17.313Z,78.92
2022-12-11T05:23:45.873Z,78.35
2022-12-11T05:26:16.975Z,78.23
2022-12-11T05:28:46.315Z,77.59
2022-12-11T05:31:18.216Z,76.15
2022-12-11T05:33:47.730Z,76.60
2022-12-11T05:36:20.182Z,77.40
2022-12-11T05:38:49.436Z,77.87
2022-12-11T05:41:19.467Z,77.27
2022-12-11T05:43:48.412Z,77.42
2022-12-11T05:46:19.141Z,77.34
2022-12-11T05:48:49.008Z,77.99
2022-12-11T05:51:20.179Z,77.82
2022-12-11T05:53:50.183Z,77.88
2022-12-11T05:56:20.726Z,78.06
2022-12-11T05:58:49.965Z,77.90
2022-12-11T06:01:20.680Z,77.94
2022-12-11T06:03:49.464Z,76.12
2022-12-11T06:06:19.431Z,78.17
2022-12-11T06:08:50.728Z,79.03
2022-12-11T06:11:23.739Z,77.74
2022-12-11T06:13:53.197Z,78.82
2022-12-11T06:16:22.844Z,78.83
2022-12-11T06:18:52.931Z,79.32
2022-12-11T06:21:27.519Z,80.95
2022-12-11T06:23:58.155Z,80.07
2022-12-11T06:26:27.203Z,80.68
2022-12-11T06:28:55.855Z,80.64
2022-12-11T06:31:24.825Z,79.67
2022-12-11T06:33:54.195Z,80.77
2022-12-11T06:36:24.986Z,80.59
2022-12-11T06:38:54.196Z,80.36
2022-12-11T06:41:22.835Z,78.56
2022-12-11T06:43:51.726Z,78.42
2022-12-11T06:46:21.034Z,78.70
2022-12-11T06:48:50.190Z,78.86
2022-12-11T06:51:20.372Z,79.21
2022-12-11T06:53:53.941Z,80.17
2022-12-11T06:56:23.186Z,80.28
2022-12-11T06:58:52.007Z,79.05
2022-12-11T07:01:22.772Z,80.28
2022-12-11T07:03:53.846Z,80.18
2022-12-11T07:06:22.704Z,80.94
2022-12-11T07:08:52.739Z,80.17
2022-12-11T07:11:21.953Z,81.42
2022-12-11T07:13:50.963Z,80.91
2022-12-11T07:16:20.110Z,80.87
2022-12-11T07:18:50.404Z,80.03
2022-12-11T07:21:20.092Z,78.85
2022-12-11T07:23:48.936Z,79.20
2022-12-11T07:26:21.975Z,78.88
2022-12-11T07:28:50.724Z,78.90
2022-12-11T07:31:21.752Z,77.99
2022-12-11T07:33:54.890Z,78.00
2022-12-11T07:36:24.320Z,77.74
2022-12-11T07:38:53.063Z,78.19
2022-12-11T07:41:24.080Z,78.50
2022-12-11T07:43:52.668Z,77.93
2022-12-11T07:46:23.438Z,78.57
2022-12-11T07:48:52.207Z,79.12
2022-12-11T07:51:24.994Z,80.44
2022-12-11T07:53:54.630Z,79.54
2022-12-11T07:56:24.821Z,78.30
2022-12-11T07:58:53.777Z,79.26
2022-12-11T08:01:24.089Z,78.96
2022-12-11T08:03:53.463Z,78.46
2022-12-11T08:06:26.981Z,78.00
2022-12-11T08:08:55.670Z,78.17
2022-12-11T08:11:26.480Z,77.78
2022-12-11T08:13:55.495Z,78.71
2022-12-11T08:16:24.256Z,78.07
2022-12-11T08:18:53.039Z,78.65
2022-12-11T08:21:23.227Z,78.31
2022-12-11T08:23:53.163Z,77.87
2022-12-11T08:26:25.970Z,78.13
2022-12-11T08:28:55.170Z,78.09
2022-12-11T08:31:23.848Z,78.80
2022-12-11T08:33:53.425Z,78.34
2022-12-11T08:36:22.907Z,77.53
2022-12-11T08:38:52.055Z,78.09
2022-12-11T08:41:21.946Z,78.63
2022-12-11T08:43:54.833Z,79.63
2022-12-11T08:46:24.803Z,79.83
2022-12-11T08:48:53.950Z,78.22
2022-12-11T08:51:25.935Z,78.87
2022-12-11T08:53:56.041Z,78.43
2022-12-11T08:56:24.861Z,77.84
2022-12-11T08:58:54.982Z,78.78
2022-12-11T09:01:24.794Z,77.68
2022-12-11T09:03:54.857Z,78.67
2022-12-11T09:06:25.877Z,79.89
2022-12-11T09:08:55.993Z,77.67
2022-12-11T09:11:26.674Z,78.45
2022-12-11T09:13:58.168Z,78.96
2022-12-11T09:16:28.962Z,78.97
2022-12-11T09:18:59.023Z,78.32
2022-12-11T09:21:29.490Z,80.03
2022-12-11T09:24:02.162Z,80.30
2022-12-11T09:26:31.197Z,81.09
2022-12-11T09:29:03.881Z,82.56
2022-12-11T09:31:33.928Z,83.07
2022-12-11T09:34:05.374Z,84.45
2022-12-11T09:36:34.277Z,83.44
2022-12-11T09:39:04.967Z,84.60
2022-12-11T09:41:38.536Z,85.06
2022-12-11T09:44:21.895Z,84.96
2022-12-11T09:46:51.823Z,85.18
2022-12-11T09:49:28.506Z,83.54
2022-12-11T09:52:18.890Z,81.92
2022-12-11T09:54:51.476Z,83.72
2022-12-11T09:57:28.535Z,84.02
2022-12-11T10:00:19.205Z,84.07
2022-12-11T10:03:01.998Z,84.47
2022-12-11T10:05:35.466Z,83.84
2022-12-11T10:08:07.941Z,83.45
2022-12-11T10:10:42.944Z,83.43
2022-12-11T10:13:18.199Z,82.78
2022-12-11T10:15:53.018Z,82.01
2022-12-11T10:18:24.382Z,80.90
2022-12-11T10:20:54.253Z,81.57
2022-12-11T10:23:26.238Z,78.76
2022-12-11T10:25:57.113Z,79.94
2022-12-11T10:28:28.686Z,80.28
2022-12-11T10:31:05.992Z,80.19
2022-12-11T10:33:42.839Z,79.25
2022-12-11T10:36:11.944Z,80.42
2022-12-11T10:38:44.071Z,80.21
2022-12-11T10:41:13.898Z,81.27
2022-12-11T10:43:44.452Z,80.77
2022-12-11T10:46:18.513Z,80.56
2022-12-11T10:48:48.212Z,80.45
2022-12-11T10:51:17.066Z,80.33
2022-12-11T10:53:51.191Z,80.44
2022-12-11T10:56:26.450Z,80.37
2022-12-11T10:58:56.218Z,78.86
2022-12-11T11:01:28.435Z,79.47
2022-12-11T11:04:01.270Z,78.71
2022-12-11T11:06:29.958Z,78.69
2022-12-11T11:09:00.338Z,78.01
2022-12-11T11:11:33.831Z,77.64
2022-12-11T11:14:08.151Z,78.71
2022-12-11T11:16:39.802Z,77.64
2022-12-11T11:19:08.601Z,78.27
2022-12-11T11:21:37.318Z,77.54
2022-12-11T11:24:06.137Z,78.20
2022-12-11T11:27:04.724Z,78.33
2022-12-11T11:29:28.097Z,77.95
2022-12-11T11:31:58.340Z,78.42
2022-12-11T11:34:30.825Z,79.93
2022-12-11T11:37:05.551Z,78.19
2022-12-11T11:39:37.179Z,78.49
2022-12-11T11:42:11.750Z,78.93
2022-12-11T11:44:43.426Z,80.11
2022-12-11T11:47:17.794Z,79.10
2022-12-11T11:49:52.063Z,77.64
2022-12-11T11:52:26.046Z,80.27
2022-12-11T11:55:00.800Z,78.73
2022-12-11T11:57:34.961Z,79.29
2022-12-11T12:00:10.718Z,78.39
2022-12-11T12:02:42.253Z,79.10
2022-12-11T12:05:13.984Z,76.56
2022-12-11T12:07:47.935Z,76.42
2022-12-11T12:10:23.578Z,76.86
2022-12-11T12:12:57.496Z,77.49
2022-12-11T12:15:33.678Z,77.39
2022-12-11T12:18:12.808Z,78.05
2022-12-11T12:20:45.367Z,76.47
2022-12-11T12:23:28.770Z,76.11
2022-12-11T12:26:05.295Z,78.34
2022-12-11T12:28:40.746Z,75.76
2022-12-11T12:31:18.594Z,74.30
2022-12-11T12:33:55.641Z,74.23
2022-12-11T12:36:29.000Z,72.95
2022-12-11T12:39:02.413Z,73.99
2022-12-11T12:41:41.635Z,74.17
2022-12-11T12:44:15.113Z,73.42
2022-12-11T12:46:51.688Z,75.00
2022-12-11T12:49:29.531Z,75.55
2022-12-11T12:51:58.957Z,75.07
2022-12-11T12:54:28.700Z,74.96
2022-12-11T12:56:57.772Z,76.53
2022-12-11T12:59:28.708Z,75.34
2022-12-11T13:01:59.577Z,75.94
2022-12-11T13:04:55.554Z,75.50
2022-12-11T13:07:29.736Z,76.60
2022-12-11T13:10:06.121Z,76.93
2022-12-11T13:12:43.301Z,76.62
2022-12-11T13:15:25.776Z,77.28
2022-12-11T13:17:54.459Z,77.56
2022-12-11T13:20:26.662Z,76.78
2022-12-11T13:22:58.165Z,77.33
2022-12-11T13:25:31.225Z,77.48
2022-12-11T13:28:07.557Z,77.18
2022-12-11T13:30:36.202Z,77.22
2022-12-11T13:33:07.467Z,77.95
2022-12-11T13:35:37.431Z,77.49
2022-12-11T13:38:08.188Z,78.02
2022-12-11T13:40:41.130Z,78.98
2022-12-11T13:43:18.207Z,77.26
2022-12-11T13:45:50.029Z,77.46
2022-12-11T13:48:23.323Z,77.71
2022-12-11T13:50:54.683Z,77.92
2022-12-11T13:53:23.944Z,77.59
2022-12-11T13:55:59.162Z,77.63
2022-12-11T13:58:28.719Z,77.88
2022-12-11T14:01:06.040Z,77.79
2022-12-11T14:03:35.002Z,78.33
2022-12-11T14:06:05.186Z,78.63
2022-12-11T14:08:35.630Z,76.83
2022-12-11T14:11:04.480Z,75.85
2022-12-11T14:13:35.235Z,76.34
2022-12-11T14:16:04.273Z,78.54
2022-12-11T14:18:34.533Z,78.37
2022-12-11T14:21:06.507Z,78.17
2022-12-11T14:23:36.332Z,77.78
2022-12-11T14:26:16.485Z,78.14
2022-12-11T14:28:45.151Z,78.15
2022-12-11T14:31:16.442Z,78.04
2022-12-11T14:33:47.714Z,76.64
2022-12-11T14:36:17.924Z,75.40
2022-12-11T14:38:48.467Z,75.97
2022-12-11T14:41:20.925Z,75.93
2022-12-11T14:43:51.920Z,77.14
2022-12-11T14:46:23.683Z,77.35
2022-12-11T14:49:00.594Z,77.84
2022-12-11T14:51:35.906Z,78.24
2022-12-11T14:54:05.558Z,78.21
2022-12-11T14:56:34.804Z,78.39
2022-12-11T14:59:05.397Z,78.62
2022-12-11T15:01:35.143Z,78.46
2022-12-11T15:04:08.879Z,78.20
2022-12-11T15:06:46.018Z,79.27
2022-12-11T15:09:19.856Z,78.79
2022-12-11T15:11:50.136Z,78.61
2022-12-11T15:14:20.266Z,79.06
2022-12-11T15:16:49.562Z,79.66
2022-12-11T15:19:21.995Z,79.56
2022-12-11T15:21:52.353Z,79.21
2022-12-11T15:24:27.241Z,79.27
2022-12-11T15:26:59.426Z,78.58
2022-12-11T15:29:34.427Z,78.57
2022-12-11T15:32:05.828Z,78.42
2022-12-11T15:34:35.707Z,78.70
2022-12-11T15:37:05.709Z,79.78
2022-12-11T15:39:34.340Z,79.03
2022-12-11T15:42:08.023Z,79.86
2022-12-11T15:44:36.648Z,80.14
2022-12-11T15:47:13.154Z,80.02
2022-12-11T15:49:41.852Z,79.99
2022-12-11T15:52:11.848Z,79.76
2022-12-11T15:54:40.449Z,79.72
2022-12-11T15:57:14.063Z,78.92
2022-12-11T15:59:42.655Z,79.74
2022-12-11T16:02:12.523Z,79.54
2022-12-11T16:04:41.491Z,79.16
2022-12-11T16:07:17.637Z,79.46
2022-12-11T16:09:46.393Z,79.92
2022-12-11T16:12:15.003Z,79.57
2022-12-11T16:14:44.087Z,79.98
2022-12-11T16:17:14.532Z,79.07
2022-12-11T16:19:44.042Z,79.72
2022-12-11T16:22:14.753Z,79.63
2022-12-11T16:24:43.789Z,78.70
2022-12-11T16:27:12.532Z,79.82
2022-12-11T16:29:42.563Z,80.62
2022-12-11T16:32:11.426Z,80.28
2022-12-11T16:34:40.193Z,80.31
2022-12-11T16:37:09.696Z,81.15
2022-12-11T16:39:42.482Z,80.06
2022-12-11T16:42:11.088Z,80.10
2022-12-11T16:44:44.043Z,79.90
2022-12-11T16:47:13.053Z,80.49
2022-12-11T16:49:42.885Z,81.44
2022-12-11T16:52:11.708Z,80.81
2022-12-11T16:54:41.693Z,80.65
2022-12-11T16:57:10.368Z,80.30
2022-12-11T16:59:39.098Z,81.17
2022-12-11T17:02:07.836Z,80.85
2022-12-11T17:04:36.547Z,81.35
2022-12-11T17:07:05.291Z,81.28
2022-12-11T17:09:34.500Z,81.35
2022-12-11T17:12:04.913Z,82.35
2022-12-11T17:14:33.589Z,82.40
2022-12-11T17:17:02.217Z,81.93
2022-12-11T17:19:30.820Z,82.19
2022-12-11T17:21:59.515Z,82.55
2022-12-11T17:24:28.516Z,82.76
2022-12-11T17:26:57.215Z,82.61
2022-12-11T17:29:27.235Z,82.28
2022-12-11T17:31:56.120Z,82.96
2022-12-11T17:34:24.725Z,81.87
2022-12-11T17:36:53.315Z,82.58
2022-12-11T17:39:21.959Z,82.79
2022-12-11T17:41:50.662Z,83.03
2022-12-11T17:44:19.304Z,82.82
2022-12-11T17:46:49.383Z,83.52
2022-12-11T17:49:18.075Z,83.13
2022-12-11T17:51:46.725Z,82.84
2022-12-11T17:54:15.342Z,82.71
2022-12-11T17:56:44.129Z,82.39
2022-12-11T17:59:12.905Z,83.09
2022-12-11T18:01:41.650Z,83.24
2022-12-11T18:04:11.801Z,82.75
2022-12-11T18:06:40.507Z,82.92
2022-12-11T18:09:10.259Z,82.64
2022-12-11T18:11:38.986Z,83.64
2022-12-11T18:14:10.057Z,83.76
2022-12-11T18:16:42.386Z,82.45
2022-12-11T18:19:13.876Z,82.81
2022-12-11T18:21:44.081Z,82.26
2022-12-11T18:24:12.920Z,82.07
2022-12-11T18:26:42.728Z,82.55
2022-12-11T18:29:11.795Z,82.96
2022-12-11T18:31:42.853Z,83.88
2022-12-11T18:34:13.099Z,83.10
2022-12-11T18:36:41.859Z,83.37
2022-12-11T18:39:10.464Z,82.10
2022-12-11T18:41:39.912Z,81.81
2022-12-11T18:44:10.093Z,81.49
2022-12-11T18:46:39.840Z,82.24
2022-12-11T18:49:08.677Z,83.06
2022-12-11T18:51:38.637Z,82.07
2022-12-11T18:54:07.258Z,83.00
2022-12-11T18:56:36.254Z,82.67
2022-12-11T18:59:05.014Z,82.55
2022-12-11T19:01:34.630Z,82.27
2022-12-11T19:04:07.847Z,85.24
2022-12-11T19:06:40.741Z,82.58
2022-12-11T19:09:10.141Z,82.66
2022-12-11T19:11:40.964Z,82.25
2022-12-11T19:14:10.134Z,83.56
2022-12-11T19:16:40.633Z,83.24
2022-12-11T19:19:12.468Z,84.41
2022-12-11T19:21:43.091Z,84.13
2022-12-11T19:24:14.892Z,83.97
2022-12-11T19:26:43.575Z,83.96
2022-12-11T19:29:20.155Z,84.60
2022-12-11T19:31:49.060Z,84.95
2022-12-11T19:34:18.126Z,83.95
2022-12-11T19:36:48.215Z,84.29
2022-12-11T19:39:17.507Z,84.46
2022-12-11T19:41:46.227Z,84.33
2022-12-11T19:44:14.974Z,83.69
2022-12-11T19:46:43.684Z,83.11
2022-12-11T19:49:13.202Z,84.70
2022-12-11T19:51:42.969Z,84.99
2022-12-11T19:54:16.070Z,84.91
2022-12-11T19:56:45.219Z,85.42
2022-12-11T19:59:15.693Z,86.09
2022-12-11T20:01:46.756Z,85.90
2022-12-11T20:04:17.548Z,85.98
2022-12-11T20:06:47.104Z,85.71
2022-12-11T20:09:18.197Z,85.38
2022-12-11T20:11:47.455Z,86.05
2022-12-11T20:14:21.490Z,85.82
2022-12-11T20:19:39.619Z,86.19
2022-12-11T20:22:09.022Z,85.69
2022-12-11T20:24:39.053Z,84.59
2022-12-11T20:27:07.802Z,85.21
2022-12-11T20:29:37.306Z,84.25
2022-12-11T20:32:07.304Z,84.96
2022-12-11T20:34:35.997Z,85.35
2022-12-11T20:37:04.629Z,84.59
2022-12-11T20:39:33.328Z,84.27
2022-12-11T20:42:04.841Z,84.69
2022-12-11T20:44:33.612Z,84.40
2022-12-11T20:47:02.312Z,84.32
2022-12-11T20:49:31.107Z,84.55
2022-12-11T20:52:00.575Z,85.49
2022-12-11T20:54:29.271Z,86.83
2022-12-11T20:56:58.217Z,86.06
2022-12-11T20:59:28.377Z,85.89
2022-12-11T21:01:57.179Z,86.40
2022-12-11T21:04:26.127Z,86.31
2022-12-11T21:07:01.155Z,86.91
2022-12-11T21:09:29.805Z,85.29
2022-12-11T21:12:00.687Z,86.32
2022-12-11T21:14:30.920Z,86.20
2022-12-11T21:17:00.258Z,86.06
2022-12-11T21:19:28.833Z,86.21
2022-12-11T21:21:58.260Z,85.62
2022-12-11T21:24:30.000Z,86.05
2022-12-11T21:26:59.457Z,86.67
2022-12-11T21:29:30.344Z,87.23
2022-12-11T21:31:59.625Z,86.04
2022-12-11T21:34:28.677Z,85.83
2022-12-11T21:36:57.606Z,84.61
2022-12-11T21:39:28.159Z,85.49
2022-12-11T21:41:58.078Z,84.12
2022-12-11T21:47:17.227Z,83.58
2022-12-11T21:49:45.935Z,83.18
2022-12-11T21:52:15.020Z,83.80
2022-12-11T21:54:43.604Z,83.30
2022-12-11T21:57:12.249Z,83.08
2022-12-11T21:59:40.806Z,82.79
2022-12-11T22:02:12.073Z,81.58
2022-12-11T22:04:42.250Z,81.54
2022-12-11T22:07:10.849Z,81.50
2022-12-11T22:09:39.463Z,81.38
2022-12-11T22:12:08.423Z,81.83
2022-12-11T22:14:37.104Z,81.85
2022-12-11T22:17:05.758Z,82.36
2022-12-11T22:19:34.382Z,82.19
2022-12-11T22:22:04.347Z,81.35
2022-12-11T22:24:32.976Z,81.48
2022-12-11T22:27:01.544Z,81.48
2022-12-11T22:29:30.160Z,82.12
2022-12-11T22:31:58.887Z,82.46
2022-12-11T22:34:27.624Z,82.13
2022-12-11T22:36:56.381Z,82.78
2022-12-11T22:39:26.339Z,82.22
2022-12-11T22:41:55.061Z,82.44
2022-12-11T22:44:23.675Z,82.67
2022-12-11T22:46:52.362Z,81.56
2022-12-11T22:49:21.196Z,81.15
2022-12-11T22:51:50.025Z,80.84
2022-12-11T22:54:18.684Z,80.94
2022-12-11T22:56:48.631Z,80.35
2022-12-11T22:59:17.187Z,81.02
2022-12-11T23:01:45.936Z,80.95
2022-12-11T23:04:14.656Z,80.59
2022-12-11T23:06:43.303Z,80.50
2022-12-11T23:09:12.289Z,80.92
2022-12-11T23:11:41.006Z,81.30
2022-12-11T23:14:14.814Z,80.82
2022-12-11T23:16:43.859Z,80.85
2022-12-11T23:19:13.048Z,81.57
2022-12-11T23:21:41.688Z,81.84
2022-12-11T23:24:10.771Z,81.62
2022-12-11T23:26:39.847Z,81.47
2022-12-11T23:29:08.760Z,81.40
2022-12-11T23:31:38.715Z,82.75
2022-12-11T23:34:07.326Z,81.93
2022-12-11T23:36:36.010Z,81.76
2022-12-11T23:39:05.367Z,81.92
2022-12-11T23:41:34.021Z,82.92
2022-12-11T23:44:02.916Z,82.77
2022-12-11T23:46:31.927Z,81.62
2022-12-11T23:49:01.888Z,81.28
2022-12-11T23:51:30.506Z,81.51
2022-12-11T23:53:59.072Z,81.82
2022-12-11T23:56:29.715Z,80.87
2022-12-11T23:58:58.928Z,81.76
